Time;durP1;ratioP1;P1;durP2;ratioP2;P2;SDS_P1;SDS_P2;PMS_P1;PMS_P2;Temp;Humidity;BMP_temperature;BMP_pressure;BME280_temperature;BME280_humidity;BME280_pressure;Samples;Min_cycle;Max_cycle;Signal;HPM_P1;HPM_P2
2022/11/29 00:01:41;;;;;;;3.13;2.83;;;5.30;99.90;;;;;;4114627;28;20194;-70
2022/11/29 00:03:42;;;;;;;7.00;2.40;;;5.40;99.90;;;;;;4113048;28;20222;-70
2022/11/29 00:05:43;;;;;;;2.50;2.03;;;5.40;99.90;;;;;;4113451;28;20489;-71
2022/11/29 00:07:43;;;;;;;3.03;2.30;;;5.20;99.90;;;;;;4114558;28;20835;-69
2022/11/29 00:09:44;;;;;;;2.70;2.20;;;5.30;99.90;;;;;;4114622;28;20277;-69
2022/11/29 00:14:07;;;;;;;3.83;2.00;;;5.30;99.90;;;;;;4113944;28;20183;-70
2022/11/29 00:16:11;;;;;;;5.73;2.30;;;5.40;99.90;;;;;;4114531;28;21263;-69
2022/11/29 00:18:11;;;;;;;2.83;1.93;;;5.50;99.90;;;;;;4114837;28;20452;-69
2022/11/29 00:20:12;;;;;;;2.53;2.17;;;5.40;99.90;;;;;;4113357;28;20452;-69
2022/11/29 00:22:13;;;;;;;4.13;2.07;;;5.40;99.90;;;;;;4113498;28;20199;-70
2022/11/29 00:24:13;;;;;;;2.23;1.90;;;5.40;99.90;;;;;;4114745;28;20207;-70
2022/11/29 00:26:14;;;;;;;3.33;1.93;;;5.40;99.90;;;;;;4115648;28;20668;-71
2022/11/29 00:28:15;;;;;;;2.40;1.90;;;5.50;99.90;;;;;;4116603;28;20665;-72
2022/11/29 00:30:16;;;;;;;2.70;1.83;;;5.50;99.90;;;;;;4113844;28;20223;-69
2022/11/29 00:32:17;;;;;;;3.37;1.97;;;5.60;99.90;;;;;;4113965;28;20187;-71
2022/11/29 00:34:17;;;;;;;3.80;2.13;;;5.70;99.90;;;;;;4115105;28;20434;-71
2022/11/29 00:36:19;;;;;;;4.50;2.00;;;5.70;99.90;;;;;;4114271;28;20210;-71
2022/11/29 00:38:19;;;;;;;3.10;2.00;;;5.60;99.90;;;;;;4114637;28;20260;-73
2022/11/29 00:40:20;;;;;;;2.70;1.80;;;5.60;99.90;;;;;;4129938;28;20473;-70
2022/11/29 00:42:21;;;;;;;4.20;2.17;;;5.70;99.90;;;;;;4122683;28;20186;-73
2022/11/29 00:44:21;;;;;;;3.63;2.60;;;5.60;99.90;;;;;;4111072;28;20202;-72
2022/11/29 00:46:22;;;;;;;4.23;2.00;;;5.70;99.90;;;;;;4115112;28;20735;-72
2022/11/29 00:48:23;;;;;;;8.20;2.30;;;5.60;99.90;;;;;;4114222;28;20237;-73
2022/11/29 00:50:24;;;;;;;2.87;2.20;;;5.70;99.90;;;;;;4114920;28;20189;-72
2022/11/29 00:52:25;;;;;;;3.10;2.27;;;5.70;99.90;;;;;;4113727;28;20184;-72
2022/11/29 00:54:25;;;;;;;5.37;2.30;;;5.90;99.90;;;;;;4112976;28;20195;-72
2022/11/29 00:56:26;;;;;;;5.20;3.03;;;5.80;99.90;;;;;;4114989;28;20899;-69
2022/11/29 00:58:27;;;;;;;5.93;2.30;;;5.90;99.90;;;;;;4114728;28;20571;-69
2022/11/29 01:00:28;;;;;;;4.93;2.50;;;5.90;99.90;;;;;;4114619;28;20230;-70
2022/11/29 01:02:29;;;;;;;3.53;2.40;;;5.90;99.90;;;;;;4114205;28;20453;-69
2022/11/29 01:04:29;;;;;;;5.23;2.83;;;5.90;99.90;;;;;;4112197;28;20746;-69
2022/11/29 01:06:30;;;;;;;3.87;2.70;;;6.00;99.90;;;;;;4114498;28;20207;-70
2022/11/29 01:08:31;;;;;;;3.73;2.10;;;6.00;99.90;;;;;;4113176;28;20183;-69
2022/11/29 01:10:32;;;;;;;3.30;2.60;;;6.00;99.90;;;;;;4114847;28;20567;-69
2022/11/29 01:12:38;;;;;;;2.93;2.33;;;5.90;99.90;;;;;;4114660;28;20612;-66
2022/11/29 01:14:38;;;;;;;3.73;2.73;;;5.90;99.90;;;;;;4112827;28;20522;-69
2022/11/29 01:16:39;;;;;;;4.37;2.70;;;5.90;99.90;;;;;;4112981;28;20875;-69
2022/11/29 01:18:40;;;;;;;4.10;3.07;;;5.80;99.90;;;;;;4114729;28;20195;-69
2022/11/29 01:20:41;;;;;;;4.97;2.60;;;5.60;99.90;;;;;;4113040;28;20771;-70
2022/11/29 01:22:42;;;;;;;5.97;2.40;;;5.70;99.90;;;;;;4113537;28;20430;-68
2022/11/29 01:24:42;;;;;;;5.37;3.13;;;5.70;99.90;;;;;;4113956;28;20187;-69
2022/11/29 01:26:43;;;;;;;5.60;2.60;;;5.80;99.90;;;;;;4114321;28;20427;-70
2022/11/29 01:28:49;;;;;;;5.93;3.20;;;5.70;99.90;;;;;;4112990;28;20186;-70
2022/11/29 01:30:50;;;;;;;7.23;3.00;;;5.50;99.90;;;;;;4114247;28;20187;-69
2022/11/29 01:32:50;;;;;;;3.70;2.80;;;5.40;99.90;;;;;;4113330;28;20443;-69
2022/11/29 01:34:51;;;;;;;7.20;3.30;;;5.60;99.90;;;;;;4113825;28;20214;-69
2022/11/29 01:36:52;;;;;;;6.30;3.50;;;5.50;99.90;;;;;;4114055;28;20196;-69
2022/11/29 01:38:53;;;;;;;5.23;3.13;;;5.70;99.90;;;;;;4114250;28;20249;-69
2022/11/29 01:40:59;;;;;;;5.80;2.80;;;5.60;99.90;;;;;;4113110;28;20190;-69
2022/11/29 01:43:00;;;;;;;8.80;2.83;;;5.50;99.90;;;;;;4113346;28;20533;-70
2022/11/29 01:45:14;;;;;;;5.03;2.50;;;5.30;99.90;;;;;;4112447;28;20869;-69
2022/11/29 01:47:17;;;;;;;5.43;2.53;;;5.30;99.90;;;;;;4112449;28;20191;-69
2022/11/29 01:49:37;;;;;;;9.50;3.50;;;5.30;99.90;;;;;;4112879;28;20463;-69
2022/11/29 01:51:41;;;;;;;6.13;2.03;;;5.30;99.90;;;;;;4112822;28;21006;-69
2022/11/29 01:53:42;;;;;;;8.83;1.93;;;5.20;99.90;;;;;;4112250;28;20444;-68
2022/11/29 01:55:53;;;;;;;6.47;2.10;;;5.20;99.90;;;;;;4113828;28;20450;-70
2022/11/29 01:57:54;;;;;;;6.17;2.27;;;5.30;99.90;;;;;;4096444;29;20550;-68
2022/11/29 02:00:03;;;;;;;3.30;1.93;;;5.30;99.90;;;;;;4112411;28;20465;-69
2022/11/29 02:02:11;;;;;;;6.03;3.70;;;5.30;99.90;;;;;;4113706;28;20313;-71
2022/11/29 02:04:13;;;;;;;5.73;2.07;;;5.30;99.90;;;;;;4111814;28;20504;-70
2022/11/29 02:06:15;;;;;;;5.73;2.23;;;5.40;99.90;;;;;;4112246;28;20446;-69
2022/11/29 02:08:25;;;;;;;6.87;1.80;;;5.30;99.90;;;;;;4113533;28;20458;-69
2022/11/29 02:11:09;;;;;;;3.23;1.63;;;5.10;99.90;;;;;;4112297;28;20418;-69
2022/11/29 02:13:23;;;;;;;4.77;1.63;;;4.90;99.90;;;;;;4112784;28;20430;-69
2022/11/29 02:15:46;;;;;;;8.80;2.30;;;5.00;99.90;;;;;;4113264;28;20453;-70
2022/11/29 02:18:09;;;;;;;3.07;1.43;;;4.80;99.90;;;;;;4099160;29;20943;-69
2022/11/29 02:20:46;;;;;;;7.27;1.53;;;4.60;99.90;;;;;;4099820;29;20530;-69
2022/11/29 02:23:11;;;;;;;6.60;1.90;;;4.60;99.90;;;;;;4098782;29;20907;-68
2022/11/29 02:25:44;;;;;;;7.73;1.50;;;4.60;99.90;;;;;;4100475;28;20534;-69
2022/11/29 02:28:21;;;;;;;4.43;1.53;;;4.70;99.90;;;;;;4099606;28;20419;-70
2022/11/29 02:31:01;;;;;;;6.00;2.13;;;4.80;99.90;;;;;;4100581;28;20427;-69
2022/11/29 02:33:28;;;;;;;9.20;2.13;;;4.90;99.90;;;;;;4100311;28;20430;-69
2022/11/29 02:35:53;;;;;;;4.23;1.30;;;4.70;99.90;;;;;;4104370;28;20454;-69
2022/11/29 02:38:35;;;;;;;7.43;1.70;;;4.60;99.90;;;;;;4116389;28;20801;-69
2022/11/29 02:41:27;;;;;;;4.40;1.60;;;4.70;99.90;;;;;;4108797;28;20529;-69
2022/11/29 02:44:24;;;;;;;7.73;1.90;;;4.60;99.90;;;;;;4115084;28;20485;-69
2022/11/29 02:47:01;;;;;;;4.13;1.77;;;4.50;99.90;;;;;;4123015;28;20481;-69
2022/11/29 02:49:21;;;;;;;2.70;1.60;;;4.50;99.90;;;;;;4116817;28;20410;-69
2022/11/29 02:51:46;;;;;;;2.63;1.30;;;4.50;99.90;;;;;;4115320;28;20790;-69
2022/11/29 02:53:56;;;;;;;6.20;2.10;;;4.60;99.90;;;;;;4115912;28;20406;-69
2022/11/29 02:56:30;;;;;;;3.57;1.57;;;4.50;99.90;;;;;;4115016;28;20434;-69
2022/11/29 02:58:44;;;;;;;6.17;1.70;;;4.50;99.90;;;;;;4115159;28;20984;-69
2022/11/29 03:01:11;;;;;;;6.87;1.60;;;4.40;99.90;;;;;;4115018;28;20423;-69
2022/11/29 03:03:26;;;;;;;2.70;1.53;;;4.50;99.90;;;;;;4115533;28;20480;-68
2022/11/29 03:05:58;;;;;;;7.47;1.87;;;4.50;99.90;;;;;;4115310;28;21005;-69
2022/11/29 03:08:26;;;;;;;4.13;1.37;;;4.50;99.90;;;;;;4115128;28;20436;-70
2022/11/29 03:10:38;;;;;;;7.27;2.40;;;4.50;99.90;;;;;;4116439;28;20916;-69
2022/11/29 03:12:49;;;;;;;4.40;1.50;;;4.40;99.90;;;;;;4115057;28;20426;-69
2022/11/29 03:14:58;;;;;;;3.67;1.80;;;4.40;99.90;;;;;;4114890;28;20425;-70
2022/11/29 03:17:31;;;;;;;3.87;1.50;;;4.40;99.90;;;;;;4114896;28;21049;-69
2022/11/29 03:20:07;;;;;;;5.60;1.73;;;4.40;99.90;;;;;;4115041;28;20418;-70
2022/11/29 03:22:41;;;;;;;5.07;1.73;;;4.40;99.90;;;;;;4113711;28;20459;-70
2022/11/29 03:24:55;;;;;;;2.20;1.37;;;4.40;99.90;;;;;;4116058;28;20520;-70
2022/11/29 03:27:05;;;;;;;6.27;1.77;;;4.40;99.90;;;;;;4116239;28;20410;-69
2022/11/29 03:29:39;;;;;;;9.10;1.83;;;4.40;99.90;;;;;;4114663;28;20414;-69
2022/11/29 03:32:10;;;;;;;5.53;1.80;;;4.40;99.90;;;;;;4115296;28;20821;-68
2022/11/29 03:34:46;;;;;;;5.57;1.47;;;4.40;99.90;;;;;;4114131;28;20445;-69
2022/11/29 03:37:17;;;;;;;7.60;1.50;;;4.40;99.90;;;;;;4114200;28;20988;-67
2022/11/29 03:39:37;;;;;;;2.87;1.60;;;4.40;99.90;;;;;;4114601;28;20481;-68
2022/11/29 03:42:04;;;;;;;6.77;2.10;;;4.30;99.90;;;;;;4114575;28;20461;-68
2022/11/29 03:44:30;;;;;;;11.47;2.40;;;4.20;99.90;;;;;;4114830;28;20510;-68
2022/11/29 03:46:59;;;;;;;8.63;2.57;;;4.00;99.90;;;;;;4114343;28;21315;-69
2022/11/29 03:49:10;;;;;;;10.13;2.60;;;4.00;99.90;;;;;;4114545;28;20445;-69
2022/11/29 03:51:48;;;;;;;8.67;2.77;;;4.00;99.90;;;;;;4114389;28;20422;-69
2022/11/29 03:53:57;;;;;;;4.93;2.27;;;4.10;99.90;;;;;;4112126;28;20464;-70
2022/11/29 03:56:20;;;;;;;6.77;2.00;;;4.10;99.90;;;;;;4114637;28;20449;-69
2022/11/29 03:58:49;;;;;;;8.33;2.37;;;4.10;99.90;;;;;;4115719;28;20818;-68
2022/11/29 04:01:03;;;;;;;4.93;2.10;;;4.00;99.90;;;;;;4114366;28;20438;-68
2022/11/29 04:03:32;;;;;;;9.40;2.40;;;4.00;99.90;;;;;;4114801;28;20517;-68
2022/11/29 04:06:29;;;;;;;4.83;1.67;;;3.90;99.90;;;;;;4114466;28;20477;-67
2022/11/29 04:09:04;;;;;;;6.27;2.33;;;3.90;99.90;;;;;;4097440;29;20487;-68
2022/11/29 04:11:54;;;;;;;4.80;1.90;;;3.90;99.90;;;;;;4114357;28;20429;-68
2022/11/29 04:14:29;;;;;;;7.13;1.70;;;3.80;99.90;;;;;;4113728;28;20545;-69
2022/11/29 04:17:25;;;;;;;7.23;1.67;;;3.90;99.90;;;;;;4114245;28;21235;-69
2022/11/29 04:19:55;;;;;;;13.30;2.30;;;3.80;99.90;;;;;;4130551;28;20428;-69
2022/11/29 04:22:17;;;;;;;8.17;2.50;;;3.80;99.90;;;;;;4115102;28;20445;-68
2022/11/29 04:24:33;;;;;;;9.60;2.30;;;3.80;99.90;;;;;;4114730;28;20477;-67
2022/11/29 04:27:27;;;;;;;2.60;1.63;;;3.80;99.90;;;;;;4114269;28;20422;-67
2022/11/29 04:30:24;;;;;;;4.40;1.60;;;3.80;99.90;;;;;;4123884;28;20962;-68
2022/11/29 04:33:02;;;;;;;5.80;1.90;;;3.80;99.90;;;;;;4104225;28;20481;-68
2022/11/29 04:35:47;;;;;;;5.77;1.97;;;3.80;99.90;;;;;;4099075;29;20450;-68
2022/11/29 04:38:37;;;;;;;6.90;1.67;;;3.90;99.90;;;;;;4099115;29;20919;-69
2022/11/29 04:41:08;;;;;;;3.87;1.87;;;3.90;99.90;;;;;;4106104;28;21127;-69
2022/11/29 04:43:20;;;;;;;5.87;2.10;;;3.90;99.90;;;;;;4098486;29;20527;-68
2022/11/29 04:45:48;;;;;;;9.33;1.87;;;4.00;99.90;;;;;;4097747;29;20917;-70
2022/11/29 04:48:04;;;;;;;7.50;2.37;;;3.80;99.90;;;;;;4105284;29;20408;-70
2022/11/29 04:50:43;;;;;;;8.70;2.13;;;3.80;99.90;;;;;;4109588;29;20431;-70
2022/11/29 04:53:44;;;;;;;8.50;2.13;;;3.90;99.90;;;;;;4112087;28;20500;-69
2022/11/29 04:56:38;;;;;;;7.20;2.10;;;3.80;99.90;;;;;;4097720;29;20464;-69
2022/11/29 04:58:57;;;;;;;4.13;2.20;;;3.90;99.90;;;;;;4101199;28;20882;-69
2022/11/29 05:01:45;;;;;;;5.33;2.00;;;3.90;99.90;;;;;;4102437;28;20473;-69
2022/11/29 05:04:04;;;;;;;3.00;2.10;;;3.90;99.90;;;;;;4112805;28;21250;-69
2022/11/29 05:06:16;;;;;;;5.37;2.00;;;3.90;99.90;;;;;;4112989;28;20855;-69
2022/11/29 05:08:57;;;;;;;3.10;2.07;;;4.00;99.90;;;;;;4097360;28;20424;-69
2022/11/29 05:11:25;;;;;;;8.13;2.80;;;3.90;99.90;;;;;;4105584;28;20486;-69
2022/11/29 05:13:55;;;;;;;4.03;2.17;;;3.80;99.90;;;;;;4112411;28;20442;-69
2022/11/29 05:16:57;;;;;;;3.63;2.13;;;3.80;99.90;;;;;;4112815;28;20540;-69
2022/11/29 05:19:23;;;;;;;5.50;2.27;;;3.70;99.90;;;;;;4112468;28;20567;-70
2022/11/29 05:22:06;;;;;;;7.73;2.83;;;3.80;99.90;;;;;;4112768;28;20452;-69
2022/11/29 05:24:40;;;;;;;10.07;2.87;;;3.80;99.90;;;;;;4079529;29;20510;-69
2022/11/29 05:26:58;;;;;;;7.50;3.10;;;3.80;99.90;;;;;;4112800;28;20474;-69
2022/11/29 05:29:30;;;;;;;12.07;3.50;;;3.80;99.90;;;;;;4112844;28;20531;-70
2022/11/29 05:31:51;;;;;;;30.17;5.70;;;3.80;99.90;;;;;;4105321;28;20445;-69
2022/11/29 05:34:16;;;;;;;40.90;6.83;;;3.80;99.90;;;;;;4113255;28;20895;-69
2022/11/29 05:37:12;;;;;;;54.93;7.80;;;3.80;99.90;;;;;;4112645;28;20966;-69
2022/11/29 05:39:48;;;;;;;16.10;5.07;;;3.80;99.90;;;;;;4113221;28;20433;-69
2022/11/29 05:42:03;;;;;;;15.03;5.27;;;3.70;99.90;;;;;;4098382;28;20450;-68
2022/11/29 05:44:31;;;;;;;17.20;4.77;;;3.70;99.90;;;;;;4095869;28;20525;-68
2022/11/29 05:47:13;;;;;;;30.10;5.77;;;3.70;99.90;;;;;;4096779;29;20453;-68
2022/11/29 05:49:46;;;;;;;20.73;5.53;;;3.70;99.90;;;;;;4096430;28;20524;-68
2022/11/29 05:52:18;;;;;;;35.47;5.70;;;3.80;99.90;;;;;;4097574;28;20908;-69
2022/11/29 05:54:26;;;;;;;7.70;3.10;;;3.80;99.90;;;;;;4097117;28;20825;-69
2022/11/29 05:57:11;;;;;;;43.37;8.23;;;3.70;99.90;;;;;;4096412;29;20511;-69
2022/11/29 05:59:21;;;;;;;11.03;4.67;;;3.70;99.90;;;;;;4097631;28;20457;-69
2022/11/29 06:01:26;;;;;;;13.00;4.17;;;3.50;99.90;;;;;;4096520;29;20430;-70
2022/11/29 06:03:42;;;;;;;6.37;3.40;;;3.60;99.90;;;;;;4095690;28;20482;-70
2022/11/29 06:06:13;;;;;;;4.53;3.20;;;3.60;99.90;;;;;;4096360;29;20447;-68
2022/11/29 06:08:45;;;;;;;11.20;5.40;;;3.70;99.90;;;;;;4096503;29;20429;-66
2022/11/29 06:11:21;;;;;;;16.03;9.13;;;3.70;99.90;;;;;;4096298;29;20423;-68
2022/11/29 06:14:04;;;;;;;16.67;6.13;;;3.70;99.90;;;;;;4095575;29;20430;-68
2022/11/29 06:16:46;;;;;;;9.73;4.60;;;3.70;99.90;;;;;;4097637;28;20899;-69
2022/11/29 06:19:23;;;;;;;12.70;4.50;;;3.80;99.90;;;;;;4096343;29;20466;-67
2022/11/29 06:21:39;;;;;;;7.43;4.60;;;3.80;99.90;;;;;;4096193;29;20427;-68
2022/11/29 06:24:07;;;;;;;10.07;5.10;;;3.70;99.90;;;;;;4095708;29;20896;-68
2022/11/29 06:26:35;;;;;;;7.43;3.80;;;3.80;99.90;;;;;;4098371;28;20949;-68
2022/11/29 06:29:18;;;;;;;9.53;3.67;;;3.80;99.90;;;;;;4113675;28;20426;-68
2022/11/29 06:31:31;;;;;;;6.23;3.33;;;3.90;99.90;;;;;;4112686;28;20441;-69
2022/11/29 06:33:53;;;;;;;8.20;3.90;;;3.80;99.90;;;;;;4097544;28;20428;-67
2022/11/29 06:36:08;;;;;;;8.73;5.10;;;3.70;99.90;;;;;;4098359;28;20451;-68
2022/11/29 06:38:27;;;;;;;8.30;3.77;;;3.70;99.90;;;;;;4096431;29;20449;-67
2022/11/29 06:40:28;;;;;;;10.13;3.80;;;3.80;99.90;;;;;;4097547;28;20456;-68
2022/11/29 06:42:28;;;;;;;7.60;4.00;;;3.80;99.90;;;;;;4097378;28;20445;-68
2022/11/29 06:44:30;;;;;;;8.50;3.73;;;3.80;99.90;;;;;;4096699;28;20274;-67
2022/11/29 06:46:45;;;;;;;8.10;3.87;;;3.90;99.90;;;;;;4097509;28;20258;-69
2022/11/29 06:48:59;;;;;;;9.37;3.10;;;4.00;99.90;;;;;;4096226;28;20414;-69
2022/11/29 06:51:14;;;;;;;8.70;3.40;;;4.20;99.90;;;;;;4112025;28;20473;-69
2022/11/29 06:53:33;;;;;;;6.53;2.97;;;4.30;99.90;;;;;;4112311;28;20446;-68
2022/11/29 06:56:11;;;;;;;7.87;3.67;;;4.30;99.90;;;;;;4105685;28;20449;-68
2022/11/29 06:58:40;;;;;;;3.87;3.00;;;4.40;99.90;;;;;;4097467;28;20460;-68
2022/11/29 07:01:17;;;;;;;3.67;2.63;;;4.50;99.90;;;;;;4097841;28;20806;-68
2022/11/29 07:03:49;;;;;;;4.47;1.77;;;4.50;99.90;;;;;;4098926;28;20477;-68
2022/11/29 07:05:50;;;;;;;4.43;2.00;;;4.40;99.90;;;;;;4100651;28;20457;-68
2022/11/29 07:08:15;;;;;;;8.43;2.30;;;4.40;99.90;;;;;;4100604;28;20435;-69
2022/11/29 07:10:18;;;;;;;8.67;2.30;;;4.50;99.90;;;;;;4100541;28;20451;-67
2022/11/29 07:12:19;;;;;;;3.77;2.07;;;4.50;99.90;;;;;;4098891;29;20431;-69
2022/11/29 07:14:20;;;;;;;9.20;1.90;;;4.40;99.90;;;;;;4100090;28;20437;-68
2022/11/29 07:17:00;;;;;;;6.93;2.23;;;4.40;99.90;;;;;;4100740;28;20455;-68
2022/11/29 07:19:23;;;;;;;5.03;2.13;;;4.50;99.90;;;;;;4098674;29;20461;-68
2022/11/29 07:21:39;;;;;;;3.80;2.13;;;4.50;99.90;;;;;;4114946;28;20480;-68
2022/11/29 07:24:08;;;;;;;7.00;3.17;;;4.50;99.90;;;;;;4114235;28;20536;-68
2022/11/29 07:26:39;;;;;;;5.53;1.80;;;4.70;99.90;;;;;;4114905;28;20469;-68
2022/11/29 07:29:07;;;;;;;4.47;1.90;;;4.70;99.90;;;;;;4114713;28;20422;-68
2022/11/29 07:31:37;;;;;;;12.93;3.10;;;4.80;99.90;;;;;;4099775;28;20517;-68
2022/11/29 07:33:58;;;;;;;4.83;2.50;;;4.80;99.90;;;;;;4099232;28;20422;-68
2022/11/29 07:36:15;;;;;;;6.87;3.30;;;4.70;99.90;;;;;;4098581;29;20513;-68
2022/11/29 07:38:59;;;;;;;8.43;2.97;;;4.90;99.90;;;;;;4098704;29;20416;-68
2022/11/29 07:41:12;;;;;;;15.30;4.17;;;4.90;99.90;;;;;;4099519;28;20418;-68
2022/11/29 07:43:26;;;;;;;9.33;3.37;;;5.00;99.90;;;;;;4097741;29;20546;-68
2022/11/29 07:45:30;;;;;;;8.93;3.00;;;5.00;99.90;;;;;;4099553;28;20439;-68
2022/11/29 07:47:31;;;;;;;5.33;2.93;;;4.80;99.90;;;;;;4098429;29;20434;-68
2022/11/29 07:49:32;;;;;;;8.60;3.07;;;4.80;99.90;;;;;;4098449;29;20993;-68
2022/11/29 07:51:32;;;;;;;8.10;3.17;;;4.80;99.90;;;;;;4099586;29;20184;-69
2022/11/29 07:53:41;;;;;;;7.20;2.80;;;4.80;99.90;;;;;;4099058;28;20184;-68
2022/11/29 07:55:42;;;;;;;5.50;2.97;;;5.10;99.90;;;;;;4099580;28;20218;-69
2022/11/29 07:57:43;;;;;;;6.80;3.03;;;5.20;99.90;;;;;;4098393;29;20840;-68
2022/11/29 07:59:43;;;;;;;6.30;2.40;;;5.30;99.90;;;;;;4099602;28;20191;-68
2022/11/29 08:01:44;;;;;;;11.60;2.83;;;5.40;99.90;;;;;;4099367;28;20184;-68
2022/11/29 08:03:47;;;;;;;7.43;2.93;;;5.30;99.90;;;;;;4097775;29;20220;-67
2022/11/29 08:05:48;;;;;;;9.60;3.07;;;5.40;99.90;;;;;;4099435;28;20489;-68
2022/11/29 08:07:49;;;;;;;9.60;3.53;;;5.40;99.90;;;;;;4099536;28;20192;-68
2022/11/29 08:09:49;;;;;;;9.07;2.50;;;5.40;99.90;;;;;;4099536;28;20191;-67
2022/11/29 08:11:50;;;;;;;12.17;4.33;;;5.50;99.90;;;;;;4099313;28;20235;-69
2022/11/29 08:14:00;;;;;;;13.07;5.27;;;5.60;99.90;;;;;;4098530;28;20188;-68
2022/11/29 08:16:01;;;;;;;12.97;3.83;;;5.70;99.90;;;;;;4099303;28;20211;-71
2022/11/29 08:18:02;;;;;;;13.07;4.53;;;5.50;99.90;;;;;;4099325;28;20502;-68
2022/11/29 08:20:03;;;;;;;8.60;4.60;;;5.60;99.90;;;;;;4099350;29;20250;-68
2022/11/29 08:22:04;;;;;;;16.70;7.43;;;5.90;99.90;;;;;;4098037;29;20337;-68
2022/11/29 08:24:05;;;;;;;8.03;3.07;;;5.80;99.90;;;;;;4098638;28;21195;-68
2022/11/29 08:26:05;;;;;;;7.63;2.30;;;5.80;99.90;;;;;;4099391;28;20696;-68
2022/11/29 08:28:06;;;;;;;7.03;2.60;;;5.80;99.90;;;;;;4098367;29;20211;-68
2022/11/29 08:30:07;;;;;;;3.93;2.13;;;5.70;99.90;;;;;;4098084;29;20198;-69
2022/11/29 08:32:08;;;;;;;6.47;2.40;;;5.80;99.90;;;;;;4099395;28;20289;-68
2022/11/29 08:34:09;;;;;;;7.10;2.77;;;5.80;99.90;;;;;;4099190;28;20435;-69
2022/11/29 08:36:20;;;;;;;6.50;2.93;;;5.90;99.90;;;;;;4099231;28;20792;-68
2022/11/29 08:38:21;;;;;;;9.83;2.20;;;5.80;99.90;;;;;;4113707;28;20186;-68
2022/11/29 08:40:23;;;;;;;8.53;2.20;;;5.80;99.90;;;;;;4113878;28;20782;-69
2022/11/29 08:42:23;;;;;;;6.40;2.33;;;6.00;99.90;;;;;;4110420;28;20444;-67
2022/11/29 08:44:24;;;;;;;5.70;3.07;;;6.00;99.90;;;;;;4098640;28;20684;-67
2022/11/29 08:47:34;;;;;;;6.30;2.53;;;6.20;99.90;;;;;;4109567;28;20235;-68
2022/11/29 08:48:47;;;;;;;7.90;2.20;;;6.10;99.90;;;;;;4108646;28;20277;-69
2022/11/29 08:50:49;;;;;;;5.80;2.40;;;6.00;99.90;;;;;;4107035;28;20479;-71
2022/11/29 08:55:10;;;;;;;5.83;2.20;;;6.10;99.90;;;;;;4111869;28;21151;-68
2022/11/29 08:57:11;;;;;;;6.43;2.70;;;6.20;99.90;;;;;;4119960;28;20207;-68
2022/11/29 08:59:12;;;;;;;7.73;2.10;;;6.00;99.90;;;;;;4124345;28;20194;-68
2022/11/29 09:01:15;;;;;;;5.13;1.90;;;6.10;99.90;;;;;;4114198;28;20182;-68
2022/11/29 09:05:35;;;;;;;8.33;3.10;;;6.10;99.90;;;;;;4112280;28;20501;-68
2022/11/29 09:07:37;;;;;;;5.03;2.40;;;5.80;99.90;;;;;;4113692;28;20444;-67
2022/11/29 09:09:37;;;;;;;5.93;2.00;;;5.80;99.90;;;;;;4112598;28;20432;-68
2022/11/29 09:11:38;;;;;;;3.80;1.63;;;5.80;99.90;;;;;;4113880;28;20430;-68
2022/11/29 09:13:45;;;;;;;11.87;4.77;;;5.70;99.90;;;;;;4113204;28;20194;-67
2022/11/29 09:15:46;;;;;;;5.30;1.97;;;5.80;99.90;;;;;;4113853;28;20214;-69
2022/11/29 09:17:46;;;;;;;4.70;2.00;;;6.00;99.90;;;;;;4112495;28;20442;-71
2022/11/29 09:19:47;;;;;;;2.80;1.70;;;6.10;99.90;;;;;;4128372;28;20190;-68
2022/11/29 09:21:48;;;;;;;3.73;1.47;;;6.20;99.90;;;;;;4113817;28;20859;-69
2022/11/29 09:23:48;;;;;;;2.23;1.60;;;6.20;99.90;;;;;;4112886;28;20559;-69
2022/11/29 09:25:49;;;;;;;6.20;2.73;;;6.20;99.90;;;;;;4113177;28;20579;-68
2022/11/29 09:27:50;;;;;;;3.63;1.60;;;5.90;99.90;;;;;;4113456;28;20257;-70
2022/11/29 09:29:51;;;;;;;4.90;1.93;;;5.90;99.90;;;;;;4113418;28;20528;-67
2022/11/29 09:31:51;;;;;;;3.03;1.50;;;6.10;99.90;;;;;;4113563;28;20183;-68
2022/11/29 09:33:54;;;;;;;2.00;1.20;;;6.20;99.90;;;;;;4112983;28;20278;-67
2022/11/29 09:35:57;;;;;;;4.23;1.50;;;6.30;99.90;;;;;;4112060;28;20807;-70
2022/11/29 09:37:58;;;;;;;2.77;1.50;;;6.50;99.90;;;;;;4095832;29;20443;-70
2022/11/29 09:39:59;;;;;;;2.40;1.10;;;6.60;99.90;;;;;;4112875;28;20517;-70
2022/11/29 09:42:41;;;;;;;2.13;1.13;;;6.50;99.90;;;;;;4113495;28;20190;-70
2022/11/29 09:44:45;;;;;;;2.33;1.30;;;6.40;99.90;;;;;;4111876;28;20707;-70
2022/11/29 09:47:04;;;;;;;3.60;2.40;;;6.20;99.90;;;;;;4113308;28;21044;-69
2022/11/29 09:49:35;;;;;;;4.20;1.27;;;6.30;99.90;;;;;;4111441;28;20186;-70
2022/11/29 09:52:04;;;;;;;4.40;1.80;;;6.30;99.90;;;;;;4112803;28;20212;-72
2022/11/29 09:54:48;;;;;;;5.53;1.40;;;6.20;99.90;;;;;;4110807;28;20823;-72
2022/11/29 09:56:54;;;;;;;2.13;1.33;;;5.90;99.90;;;;;;4112895;28;20496;-70
2022/11/29 09:59:04;;;;;;;5.33;1.60;;;5.60;99.90;;;;;;4111547;28;20451;-73
2022/11/29 10:01:11;;;;;;;3.80;1.43;;;5.70;99.90;;;;;;4127423;28;20436;-70
2022/11/29 10:03:37;;;;;;;2.23;1.23;;;5.80;99.90;;;;;;4111129;28;20234;-71
2022/11/29 10:05:48;;;;;;;2.83;1.40;;;5.80;99.90;;;;;;4127816;28;20461;-71
2022/11/29 10:08:00;;;;;;;2.00;1.37;;;5.90;99.90;;;;;;4111848;28;20422;-71
2022/11/29 10:10:14;;;;;;;2.33;1.50;;;5.80;99.90;;;;;;4111624;28;21018;-71
2022/11/29 10:12:54;;;;;;;2.90;1.27;;;5.60;99.90;;;;;;4128228;28;20423;-71
2022/11/29 10:15:16;;;;;;;2.90;1.20;;;5.60;99.90;;;;;;4111621;28;20466;-70
2022/11/29 10:17:57;;;;;;;4.70;1.37;;;5.50;99.90;;;;;;4111444;28;20442;-71
2022/11/29 10:20:09;;;;;;;3.47;1.33;;;5.60;99.90;;;;;;4111829;28;20903;-71
2022/11/29 10:22:18;;;;;;;2.30;1.50;;;5.60;99.90;;;;;;4111725;28;21048;-71
2022/11/29 10:24:21;;;;;;;2.73;1.40;;;5.70;99.90;;;;;;4111961;28;20601;-70
2022/11/29 10:26:23;;;;;;;4.67;1.47;;;5.80;99.90;;;;;;4109900;28;20563;-71
2022/11/29 10:28:31;;;;;;;4.40;2.13;;;5.90;99.90;;;;;;4113681;28;20434;-71
2022/11/29 10:30:34;;;;;;;3.10;1.57;;;5.80;99.90;;;;;;4115580;28;20249;-71
2022/11/29 10:32:35;;;;;;;2.30;1.60;;;5.60;99.90;;;;;;4113179;28;20429;-72
2022/11/29 10:34:36;;;;;;;2.43;1.53;;;5.60;99.90;;;;;;4113164;28;20835;-71
2022/11/29 10:36:45;;;;;;;2.63;1.60;;;5.70;99.90;;;;;;4111786;28;20599;-71
2022/11/29 10:38:47;;;;;;;6.67;1.67;;;5.70;99.90;;;;;;4129814;28;20189;-71
2022/11/29 10:40:57;;;;;;;1.67;1.40;;;5.70;99.90;;;;;;4115985;28;20454;-71
2022/11/29 10:42:59;;;;;;;1.63;1.37;;;5.70;99.90;;;;;;4115431;28;20464;-71
2022/11/29 10:45:00;;;;;;;3.20;1.60;;;5.60;99.90;;;;;;4133464;28;20441;-74
2022/11/29 10:47:03;;;;;;;2.93;1.90;;;5.40;99.90;;;;;;4114656;28;20446;-71
2022/11/29 10:49:12;;;;;;;3.60;2.00;;;5.60;99.90;;;;;;4114758;28;20434;-71
2022/11/29 10:51:16;;;;;;;2.50;1.60;;;5.70;99.90;;;;;;4114749;28;20434;-72
2022/11/29 10:53:29;;;;;;;2.97;1.97;;;5.70;99.90;;;;;;4115327;28;20434;-69
2022/11/29 10:55:38;;;;;;;3.97;2.27;;;5.90;99.90;;;;;;4114643;28;20550;-71
2022/11/29 10:58:12;;;;;;;5.00;3.00;;;6.00;99.90;;;;;;4114748;28;20187;-69
2022/11/29 11:00:13;;;;;;;6.80;2.77;;;5.80;99.90;;;;;;4121571;28;20202;-69
2022/11/29 11:02:18;;;;;;;3.97;2.37;;;5.50;99.90;;;;;;4127882;28;20461;-68
2022/11/29 11:04:33;;;;;;;2.97;1.97;;;5.70;99.90;;;;;;4131366;28;20572;-69
2022/11/29 11:06:55;;;;;;;2.63;1.60;;;5.60;99.90;;;;;;4115071;28;20450;-71
2022/11/29 11:09:21;;;;;;;2.97;1.80;;;5.40;99.90;;;;;;4112462;28;20450;-70
2022/11/29 11:11:31;;;;;;;2.80;1.83;;;5.40;99.90;;;;;;4114483;28;20437;-70
2022/11/29 11:13:32;;;;;;;3.53;2.30;;;5.60;99.90;;;;;;4113824;28;20445;-71
2022/11/29 11:15:33;;;;;;;2.70;2.37;;;5.70;99.90;;;;;;4114691;28;20454;-73
2022/11/29 11:17:36;;;;;;;3.90;2.40;;;5.70;99.90;;;;;;4116013;28;20892;-73
2022/11/29 11:19:37;;;;;;;3.57;2.87;;;5.60;99.90;;;;;;4114539;28;20187;-71
2022/11/29 11:21:38;;;;;;;3.43;2.00;;;5.70;99.90;;;;;;4115810;28;20501;-69
2022/11/29 11:23:52;;;;;;;3.37;2.50;;;5.70;99.90;;;;;;4113343;28;20610;-71
2022/11/29 11:26:07;;;;;;;2.63;2.10;;;5.90;99.90;;;;;;4130345;28;20970;-70
2022/11/29 11:28:23;;;;;;;3.00;1.80;;;6.00;99.90;;;;;;4114101;28;20187;-70
2022/11/29 11:30:27;;;;;;;4.50;1.53;;;5.90;99.90;;;;;;4113941;28;20453;-70
2022/11/29 11:32:28;;;;;;;3.73;2.43;;;5.90;99.90;;;;;;4114138;28;20426;-70
2022/11/29 11:34:38;;;;;;;4.90;2.40;;;6.00;99.90;;;;;;4113407;28;20545;-72
2022/11/29 11:36:38;;;;;;;4.13;2.47;;;6.10;99.90;;;;;;4113988;28;20260;-68
2022/11/29 11:39:11;;;;;;;3.67;2.50;;;6.20;99.90;;;;;;4113969;28;20442;-68
2022/11/29 11:41:20;;;;;;;2.73;1.37;;;6.20;99.90;;;;;;4111077;28;20250;-67
2022/11/29 11:43:22;;;;;;;2.10;1.30;;;6.20;99.90;;;;;;4111524;28;21001;-68
2022/11/29 11:45:34;;;;;;;2.43;1.70;;;6.30;99.90;;;;;;4111625;28;20218;-68
2022/11/29 11:47:41;;;;;;;1.87;1.17;;;6.20;99.90;;;;;;4109393;28;20970;-68
2022/11/29 11:50:13;;;;;;;1.40;1.30;;;6.30;99.90;;;;;;4108205;28;20513;-67
2022/11/29 11:52:38;;;;;;;2.07;1.47;;;6.10;99.90;;;;;;4114007;28;21294;-68
2022/11/29 11:54:46;;;;;;;1.90;1.30;;;5.90;99.90;;;;;;4114328;28;20434;-66
2022/11/29 11:56:46;;;;;;;2.27;1.73;;;5.80;99.90;;;;;;4113552;28;20430;-67
2022/11/29 11:58:57;;;;;;;1.97;1.30;;;5.90;99.90;;;;;;4130114;28;20926;-67